Time;durP1;ratioP1;P1;durP2;ratioP2;P2;SDS_P1;SDS_P2;PMS_P1;PMS_P2;Temp;Humidity;BMP_temperature;BMP_pressure;BME280_temperature;BME280_humidity;BME280_pressure;Samples;Min_cycle;Max_cycle;Signal;HPM_P1;HPM_P2
2022/12/11 00:01:49;;;;;;;;;;;;;;;6.05;nan;101162.38;5004929;28;19922;-32
2022/12/11 00:04:14;;;;;;;;;;;;;;;6.03;nan;101161.75;5004170;28;19921;-33
2022/12/11 00:06:40;;;;;;;;;;;;;;;6.05;nan;101150.91;5004902;28;20363;-32
2022/12/11 00:09:05;;;;;;;;;;;;;;;6.09;nan;101154.78;5005754;28;20416;-32
2022/12/11 00:11:30;;;;;;;;;;;;;;;6.11;nan;101155.41;5005981;28;19925;-33
2022/12/11 00:13:56;;;;;;;;;;;;;;;6.12;nan;101149.06;5004517;28;19921;-33
2022/12/11 00:16:21;;;;;;;;;;;;;;;6.11;nan;101155.41;5005314;28;20000;-33
2022/12/11 00:18:46;;;;;;;;;;;;;;;6.12;nan;101148.25;5005395;28;19929;-32
2022/12/11 00:21:13;;;;;;;;;;;;;;;6.09;nan;101149.47;5005473;28;19921;-33
2022/12/11 00:23:39;;;;;;;;;;;;;;;6.09;nan;101153.97;5004573;28;20365;-33
2022/12/11 00:26:05;;;;;;;;;;;;;;;6.10;nan;101148.44;5004303;28;19932;-32
2022/12/11 00:28:31;;;;;;;;;;;;;;;6.10;nan;101148.44;5006164;28;19925;-33
2022/12/11 00:30:56;;;;;;;;;;;;;;;6.10;nan;101144.94;5007237;28;19931;-32
2022/12/11 00:33:22;;;;;;;;;;;;;;;6.06;nan;101147.22;5004800;28;20628;-33
2022/12/11 00:35:47;;;;;;;;;;;;;;;6.05;nan;101153.56;5006466;28;20419;-33
2022/12/11 00:38:14;;;;;;;;;;;;;;;6.04;nan;101152.75;5006553;28;19922;-33
2022/12/11 00:40:39;;;;;;;;;;;;;;;6.03;nan;101150.31;5007486;28;19917;-33
2022/12/11 00:43:05;;;;;;;;;;;;;;;5.99;nan;101143.78;5006883;28;19928;-33
2022/12/11 00:45:30;;;;;;;;;;;;;;;5.97;nan;101151.16;5003515;28;19973;-32
2022/12/11 00:47:55;;;;;;;;;;;;;;;5.90;nan;101147.66;5004558;28;19929;-32
2022/12/11 00:50:20;;;;;;;;;;;;;;;5.86;nan;101154.38;5005449;28;19925;-33
2022/12/11 00:52:46;;;;;;;;;;;;;;;5.81;nan;101157.69;5006871;28;19921;-33
2022/12/11 00:55:12;;;;;;;;;;;;;;;5.80;nan;101147.25;5006165;28;19921;-33
2022/12/11 00:57:38;;;;;;;;;;;;;;;5.76;nan;101145.00;5006795;28;19921;-33
2022/12/11 01:00:05;;;;;;;;;;;;;;;5.76;nan;101145.00;5005727;28;20589;-33
2022/12/11 01:02:31;;;;;;;;;;;;;;;5.79;nan;101137.63;5002564;28;19925;-32
2022/12/11 01:04:56;;;;;;;;;;;;;;;5.79;nan;101138.47;5004726;28;19925;-33
2022/12/11 01:07:22;;;;;;;;;;;;;;;5.77;nan;101135.19;5005864;28;19981;-32
2022/12/11 01:12:31;;;;;;;;;;;;;;;5.70;nan;101131.69;5005852;28;20011;-32
2022/12/11 01:14:56;;;;;;;;;;;;;;;5.71;nan;101131.50;5003494;28;19925;-33
2022/12/11 01:17:22;;;;;;;;;;;;;;;5.73;nan;101137.41;5005212;28;19918;-33
2022/12/11 01:19:47;;;;;;;;;;;;;;;5.75;nan;101143.38;5006560;28;20012;-33
2022/12/11 01:22:12;;;;;;;;;;;;;;;5.75;nan;101146.03;5004308;28;19960;-32
2022/12/11 01:24:37;;;;;;;;;;;;;;;5.78;nan;101141.31;5004747;28;19971;-33
2022/12/11 01:27:03;;;;;;;;;;;;;;;5.76;nan;101139.69;5004857;28;19956;-32
2022/12/11 01:29:29;;;;;;;;;;;;;;;5.78;nan;101139.47;5003881;28;20538;-33
2022/12/11 01:31:54;;;;;;;;;;;;;;;5.80;nan;101144.59;5004777;28;19917;-33
2022/12/11 01:34:19;;;;;;;;;;;;;;;5.75;nan;101143.38;5004513;28;19918;-33
2022/12/11 01:36:45;;;;;;;;;;;;;;;5.73;nan;101141.91;5008786;28;19933;-33
2022/12/11 01:39:10;;;;;;;;;;;;;;;5.70;nan;101145.00;5008443;28;19936;-32
2022/12/11 01:41:35;;;;;;;;;;;;;;;5.68;nan;101141.72;5007777;28;19918;-33
2022/12/11 01:44:03;;;;;;;;;;;;;;;5.63;nan;101134.38;5005151;28;19917;-33
2022/12/11 01:46:29;;;;;;;;;;;;;;;5.60;nan;101134.81;5008420;28;19922;-32
2022/12/11 01:48:56;;;;;;;;;;;;;;;5.60;nan;101128.66;5009040;28;19949;-32
2022/12/11 01:51:22;;;;;;;;;;;;;;;5.59;nan;101127.03;5010334;28;19956;-32
2022/12/11 01:53:50;;;;;;;;;;;;;;;5.58;nan;101115.59;5006359;28;20020;-33
2022/12/11 01:56:16;;;;;;;;;;;;;;;5.63;nan;101123.75;4990328;28;19973;-33
2022/12/11 01:58:45;;;;;;;;;;;;;;;5.63;nan;101107.78;5008988;28;19948;-33
2022/12/11 02:01:13;;;;;;;;;;;;;;;5.63;nan;101110.47;5009020;28;19921;-33
2022/12/11 02:03:38;;;;;;;;;;;;;;;5.66;nan;101112.69;5005903;28;19921;-33
2022/12/11 02:06:04;;;;;;;;;;;;;;;5.68;nan;101108.00;5007535;28;20408;-33
2022/12/11 02:08:29;;;;;;;;;;;;;;;5.68;nan;101107.16;5007753;28;19963;-33
2022/12/11 02:11:01;;;;;;;;;;;;;;;5.67;nan;101108.19;5009336;28;20070;-33
2022/12/11 02:13:38;;;;;;;;;;;;;;;5.70;nan;101107.78;5008278;28;19925;-33
2022/12/11 02:16:18;;;;;;;;;;;;;;;5.73;nan;101113.50;5006230;28;19932;-32
2022/12/11 02:18:52;;;;;;;;;;;;;;;5.76;nan;101114.94;5007701;28;19932;-33
2022/12/11 02:21:24;;;;;;;;;;;;;;;5.76;nan;101123.75;5007450;28;19921;-33
2022/12/11 02:23:52;;;;;;;;;;;;;;;5.77;nan;101121.91;5005870;28;19948;-33
2022/12/11 02:26:32;;;;;;;;;;;;;;;5.79;nan;101121.69;5006529;28;19931;-33
2022/12/11 02:28:59;;;;;;;;;;;;;;;5.79;nan;101121.69;5006544;28;19947;-33
2022/12/11 02:31:34;;;;;;;;;;;;;;;5.79;nan;101119.84;5008862;28;19940;-33
2022/12/11 02:33:59;;;;;;;;;;;;;;;5.79;nan;101116.38;5006934;28;20028;-33
2022/12/11 02:36:27;;;;;;;;;;;;;;;5.76;nan;101122.91;5007755;28;20555;-33
2022/12/11 02:38:53;;;;;;;;;;;;;;;5.76;nan;101126.41;5007492;28;19929;-33
2022/12/11 02:41:20;;;;;;;;;;;;;;;5.80;nan;101128.63;5006908;28;20012;-32
2022/12/11 02:43:46;;;;;;;;;;;;;;;5.84;nan;101132.50;5006928;28;19929;-32
2022/12/11 02:46:13;;;;;;;;;;;;;;;5.85;nan;101134.16;5008083;28;20012;-33
2022/12/11 02:48:39;;;;;;;;;;;;;;;5.86;nan;101130.47;5006971;28;19921;-33
2022/12/11 02:51:06;;;;;;;;;;;;;;;5.88;nan;101136.38;5007565;28;19917;-33
2022/12/11 02:53:34;;;;;;;;;;;;;;;5.88;nan;101141.69;5007283;28;20401;-33
2022/12/11 02:56:07;;;;;;;;;;;;;;;5.89;nan;101143.34;5007609;28;19928;-33
2022/12/11 02:58:33;;;;;;;;;;;;;;;5.85;nan;101144.78;5005704;28;19926;-33
2022/12/11 03:00:58;;;;;;;;;;;;;;;5.82;nan;101142.53;5004674;28;20439;-33
2022/12/11 03:03:24;;;;;;;;;;;;;;;5.79;nan;101143.78;5009140;28;19948;-33
2022/12/11 03:05:49;;;;;;;;;;;;;;;5.75;nan;101138.06;5006610;28;20236;-33
2022/12/11 03:08:16;;;;;;;;;;;;;;;5.71;nan;101134.16;5006819;28;19968;-33
2022/12/11 03:10:42;;;;;;;;;;;;;;;5.69;nan;101135.38;4989982;28;20296;-33
2022/12/11 03:13:08;;;;;;;;;;;;;;;5.66;nan;101133.97;5006414;28;19924;-32
2022/12/11 03:15:45;;;;;;;;;;;;;;;5.65;nan;101131.50;5006611;28;20266;-33
2022/12/11 03:18:22;;;;;;;;;;;;;;;5.62;nan;101132.75;5006425;28;20161;-32
2022/12/11 03:21:08;;;;;;;;;;;;;;;5.58;nan;101130.72;5005517;28;19928;-33
2022/12/11 03:23:47;;;;;;;;;;;;;;;5.54;nan;101130.28;5007329;28;20040;-33
2022/12/11 03:26:14;;;;;;;;;;;;;;;5.52;nan;101115.56;5006912;28;20360;-32
2022/12/11 03:28:54;;;;;;;;;;;;;;;5.47;nan;101118.84;5006955;28;19975;-33
2022/12/11 03:31:23;;;;;;;;;;;;;;;5.43;nan;101114.97;5005899;28;19921;-33
2022/12/11 03:33:51;;;;;;;;;;;;;;;5.39;nan;101116.41;5005011;28;19917;-33
2022/12/11 03:36:19;;;;;;;;;;;;;;;5.37;nan;101110.47;5007340;28;19917;-32
2022/12/11 03:39:08;;;;;;;;;;;;;;;5.36;nan;101122.13;5005876;28;19918;-33
2022/12/11 03:41:35;;;;;;;;;;;;;;;5.33;nan;101112.72;4996112;28;19921;-33
2022/12/11 03:44:01;;;;;;;;;;;;;;;5.32;nan;101119.06;5004552;28;19937;-33
2022/12/11 03:46:30;;;;;;;;;;;;;;;5.29;nan;101116.00;5006305;28;20325;-32
2022/12/11 03:48:59;;;;;;;;;;;;;;;5.25;nan;101120.09;5005764;28;19936;-32
2022/12/11 03:51:25;;;;;;;;;;;;;;;5.21;nan;101117.03;5005907;28;19996;-32
2022/12/11 03:53:52;;;;;;;;;;;;;;;5.19;nan;101129.66;5005361;28;20424;-33
2022/12/11 03:56:18;;;;;;;;;;;;;;;5.16;nan;101128.22;5006759;28;20004;-33
2022/12/11 03:58:43;;;;;;;;;;;;;;;5.12;nan;101134.16;5007216;28;19917;-33
2022/12/11 04:01:09;;;;;;;;;;;;;;;5.10;nan;101134.38;5005407;28;19925;-32
2022/12/11 04:03:35;;;;;;;;;;;;;;;5.09;nan;101123.94;5007508;28;19917;-32
2022/12/11 04:06:00;;;;;;;;;;;;;;;5.08;nan;101135.59;5005408;28;19922;-32
2022/12/11 04:08:25;;;;;;;;;;;;;;;5.06;nan;101130.47;5006301;28;20377;-32
2022/12/11 04:11:33;;;;;;;;;;;;;;;5.07;nan;101132.13;5004431;28;20004;-33
2022/12/11 04:13:36;;;;;;;;;;;;;;;5.03;nan;101125.59;5006842;28;19964;-32
2022/12/11 04:16:02;;;;;;;;;;;;;;;5.00;nan;101139.25;5005432;28;20340;-33
2022/12/11 04:26:39;;;;;;;;;;;;;;;4.86;nan;101134.94;5006245;28;19979;-33
2022/12/11 04:29:04;;;;;;;;;;;;;;;4.85;nan;101138.63;5004559;28;19917;-33
2022/12/11 04:31:29;;;;;;;;;;;;;;;4.85;nan;101128.81;5006999;28;20059;-33
2022/12/11 04:33:54;;;;;;;;;;;;;;;4.82;nan;101137.16;5006499;28;19921;-32
2022/12/11 04:36:20;;;;;;;;;;;;;;;4.80;nan;101138.38;5007937;28;20093;-33
2022/12/11 04:38:45;;;;;;;;;;;;;;;4.80;nan;101138.38;5004507;28;19928;-33
2022/12/11 04:41:12;;;;;;;;;;;;;;;4.77;nan;101142.25;5004915;28;19925;-33
2022/12/11 04:43:37;;;;;;;;;;;;;;;4.77;nan;101146.75;5007334;28;19968;-33
2022/12/11 04:46:13;;;;;;;;;;;;;;;4.75;nan;101144.31;5006249;28;20495;-32
2022/12/11 04:48:38;;;;;;;;;;;;;;;4.74;nan;101147.16;5005556;28;19925;-33
2022/12/11 04:51:04;;;;;;;;;;;;;;;4.74;nan;101140.00;5004175;28;19974;-33
2022/12/11 04:53:29;;;;;;;;;;;;;;;4.75;nan;101149.63;5006956;28;19923;-32
2022/12/11 04:55:54;;;;;;;;;;;;;;;4.75;nan;101151.44;5006420;28;19979;-33
2022/12/11 04:58:20;;;;;;;;;;;;;;;4.73;nan;101138.38;5005128;28;20463;-33
2022/12/11 05:00:45;;;;;;;;;;;;;;;4.75;nan;101140.84;5002230;28;19928;-32
2022/12/11 05:03:11;;;;;;;;;;;;;;;4.75;nan;101143.47;5005535;28;19925;-32
2022/12/11 05:05:36;;;;;;;;;;;;;;;4.74;nan;101139.19;5005365;28;19967;-33
2022/12/11 05:08:01;;;;;;;;;;;;;;;4.73;nan;101135.72;5004667;28;19940;-32
2022/12/11 05:10:27;;;;;;;;;;;;;;;4.72;nan;101130.63;5008206;28;19947;-32
2022/12/11 05:12:52;;;;;;;;;;;;;;;4.71;nan;101123.66;5011154;28;20372;-33
2022/12/11 05:15:17;;;;;;;;;;;;;;;4.70;nan;101132.66;5012783;28;20369;-32
2022/12/11 05:17:43;;;;;;;;;;;;;;;4.67;nan;101127.72;5012266;28;19925;-32
2022/12/11 05:20:09;;;;;;;;;;;;;;;4.64;nan;101136.91;5012315;28;19918;-32
2022/12/11 05:22:34;;;;;;;;;;;;;;;4.61;nan;101128.53;5010793;28;19963;-32
2022/12/11 05:25:00;;;;;;;;;;;;;;;4.60;nan;101135.69;5011829;28;19968;-33
2022/12/11 05:27:25;;;;;;;;;;;;;;;4.60;nan;101119.75;5012358;28;19978;-32
2022/12/11 05:29:50;;;;;;;;;;;;;;;4.61;nan;101129.34;5012090;28;20005;-32
2022/12/11 05:32:16;;;;;;;;;;;;;;;4.61;nan;101129.34;5011148;28;19918;-33
2022/12/11 05:34:41;;;;;;;;;;;;;;;4.62;nan;101128.31;5008052;28;19918;-32
2022/12/11 05:37:06;;;;;;;;;;;;;;;4.62;nan;101127.50;4994245;28;20173;-32
2022/12/11 05:39:32;;;;;;;;;;;;;;;4.61;nan;101115.25;5012085;28;19926;-32
2022/12/11 05:41:57;;;;;;;;;;;;;;;4.62;nan;101111.59;5011608;28;20000;-32
2022/12/11 05:44:22;;;;;;;;;;;;;;;4.61;nan;101108.13;5011671;28;19917;-32
2022/12/11 05:46:48;;;;;;;;;;;;;;;4.62;nan;101107.09;5009608;28;19921;-33
2022/12/11 05:49:14;;;;;;;;;;;;;;;4.62;nan;101107.09;5010919;28;19952;-33
2022/12/11 05:51:40;;;;;;;;;;;;;;;4.61;nan;101102.81;5011753;28;19925;-33
2022/12/11 05:54:05;;;;;;;;;;;;;;;4.63;nan;101108.72;5012076;28;19924;-32
2022/12/11 05:56:33;;;;;;;;;;;;;;;4.66;nan;101102.19;5009587;28;19921;-32
2022/12/11 05:58:59;;;;;;;;;;;;;;;4.67;nan;101096.72;5010871;28;19932;-32
2022/12/11 06:01:26;;;;;;;;;;;;;;;4.71;nan;101095.28;5012027;28;19918;-32
2022/12/11 06:03:52;;;;;;;;;;;;;;;4.73;nan;101101.22;5008312;28;19917;-32
2022/12/11 06:06:18;;;;;;;;;;;;;;;4.74;nan;101102.84;5008927;28;19932;-33
2022/12/11 06:08:43;;;;;;;;;;;;;;;4.75;nan;101096.53;5007356;28;19917;-32
2022/12/11 06:11:10;;;;;;;;;;;;;;;4.76;nan;101092.03;5009695;28;19928;-32
2022/12/11 06:13:36;;;;;;;;;;;;;;;4.76;nan;101092.84;5011133;28;19980;-32
2022/12/11 06:16:02;;;;;;;;;;;;;;;4.77;nan;101099.78;5010886;28;20336;-33
2022/12/11 06:18:28;;;;;;;;;;;;;;;4.80;nan;101106.53;4988257;28;19917;-33
2022/12/11 06:20:53;;;;;;;;;;;;;;;4.82;nan;101104.50;5011113;28;20263;-33
2022/12/11 06:23:18;;;;;;;;;;;;;;;4.85;nan;101098.78;5007462;28;19968;-32
2022/12/11 06:25:44;;;;;;;;;;;;;;;4.89;nan;101099.22;5009121;28;20032;-33
2022/12/11 06:28:10;;;;;;;;;;;;;;;4.91;nan;101100.63;5006052;28;20385;-32
2022/12/11 06:30:35;;;;;;;;;;;;;;;4.92;nan;101096.97;5007184;28;19931;-32
2022/12/11 06:33:01;;;;;;;;;;;;;;;4.94;nan;101105.53;5007349;28;19928;-33
2022/12/11 06:35:26;;;;;;;;;;;;;;;4.95;nan;101099.22;5008596;28;19917;-32
2022/12/11 06:37:51;;;;;;;;;;;;;;;4.96;nan;101097.38;5009628;28;20487;-32
2022/12/11 06:40:17;;;;;;;;;;;;;;;4.97;nan;101094.50;5005942;28;20400;-33
2022/12/11 06:42:42;;;;;;;;;;;;;;;4.98;nan;101092.66;5006261;28;20349;-32
2022/12/11 06:45:08;;;;;;;;;;;;;;;5.00;nan;101101.25;5007636;28;20412;-32
2022/12/11 06:47:33;;;;;;;;;;;;;;;5.03;nan;101100.88;5007338;28;20018;-32
2022/12/11 06:49:59;;;;;;;;;;;;;;;5.06;nan;101095.16;5007575;28;20000;-32
2022/12/11 06:52:28;;;;;;;;;;;;;;;5.09;nan;101100.88;5004849;28;19925;-33
2022/12/11 06:54:54;;;;;;;;;;;;;;;5.11;nan;101104.13;5005976;28;20448;-33
2022/12/11 06:57:19;;;;;;;;;;;;;;;5.09;nan;101098.22;5007966;28;19917;-33
2022/12/11 06:59:45;;;;;;;;;;;;;;;5.09;nan;101100.88;5008681;28;19924;-33
2022/12/11 07:02:14;;;;;;;;;;;;;;;5.09;nan;101100.88;5006502;28;19921;-32
2022/12/11 07:04:40;;;;;;;;;;;;;;;5.09;nan;101100.88;5005340;28;20012;-33
2022/12/11 07:07:05;;;;;;;;;;;;;;;5.12;nan;101100.44;5008351;28;20011;-32
2022/12/11 07:09:31;;;;;;;;;;;;;;;5.10;nan;101105.16;5007839;28;20357;-32
2022/12/11 07:11:57;;;;;;;;;;;;;;;5.05;nan;101104.94;5005840;28;19921;-33
2022/12/11 07:14:22;;;;;;;;;;;;;;;5.01;nan;101086.94;5005481;28;19917;-33
2022/12/11 07:16:47;;;;;;;;;;;;;;;4.93;nan;101103.91;5007407;28;19925;-32
2022/12/11 07:19:13;;;;;;;;;;;;;;;4.91;nan;101099.81;4987751;28;20621;-33
2022/12/11 07:21:38;;;;;;;;;;;;;;;4.91;nan;101095.31;5007809;28;20377;-33
2022/12/11 07:24:03;;;;;;;;;;;;;;;4.94;nan;101097.56;5007041;28;19928;-33
2022/12/11 07:26:29;;;;;;;;;;;;;;;4.95;nan;101093.91;5004612;28;19921;-32
2022/12/11 07:28:58;;;;;;;;;;;;;;;4.98;nan;101085.53;5007519;28;19924;-32
2022/12/11 07:31:24;;;;;;;;;;;;;;;4.99;nan;101087.16;5005402;28;19972;-32
2022/12/11 07:33:57;;;;;;;;;;;;;;;4.98;nan;101082.88;5005715;28;19960;-33
2022/12/11 07:36:22;;;;;;;;;;;;;;;5.01;nan;101082.44;5004774;28;19922;-33
2022/12/11 07:38:47;;;;;;;;;;;;;;;5.03;nan;101079.63;5006001;28;19917;-32
2022/12/11 07:41:13;;;;;;;;;;;;;;;5.05;nan;101077.56;5005668;28;19968;-33
2022/12/11 07:43:39;;;;;;;;;;;;;;;5.06;nan;101088.00;5006543;28;19971;-33
2022/12/11 07:46:06;;;;;;;;;;;;;;;5.04;nan;101086.56;5006829;28;20493;-32
2022/12/11 07:48:34;;;;;;;;;;;;;;;5.05;nan;101096.97;5004920;28;19931;-32
2022/12/11 07:51:09;;;;;;;;;;;;;;;5.06;nan;101090.66;5003501;28;19921;-32
2022/12/11 07:53:34;;;;;;;;;;;;;;;5.09;nan;101102.69;5005547;28;20404;-32
2022/12/11 07:56:00;;;;;;;;;;;;;;;5.09;nan;101103.53;5005274;28;19921;-33
2022/12/11 07:58:26;;;;;;;;;;;;;;;5.11;nan;101105.97;5004409;28;20012;-32
2022/12/11 08:00:52;;;;;;;;;;;;;;;5.12;nan;101113.72;5005547;28;19917;-33
2022/12/11 08:03:17;;;;;;;;;;;;;;;5.13;nan;101107.41;5004682;28;20436;-32
2022/12/11 08:05:47;;;;;;;;;;;;;;;5.16;nan;101120.25;5003357;28;19921;-33
2022/12/11 08:08:12;;;;;;;;;;;;;;;5.18;nan;101116.59;5006121;28;20577;-33
2022/12/11 08:10:38;;;;;;;;;;;;;;;5.18;nan;101125.38;5006653;28;19918;-33
2022/12/11 08:13:03;;;;;;;;;;;;;;;5.20;nan;101112.69;5008549;28;19921;-32
2022/12/11 08:15:29;;;;;;;;;;;;;;;5.24;nan;101134.38;5004849;28;20071;-32
2022/12/11 08:17:54;;;;;;;;;;;;;;;5.25;nan;101122.75;5005496;28;19957;-33
2022/12/11 08:20:20;;;;;;;;;;;;;;;5.28;nan;101124.97;5005767;28;19921;-32
2022/12/11 08:22:45;;;;;;;;;;;;;;;5.31;nan;101129.88;5003305;28;19937;-32
2022/12/11 08:25:10;;;;;;;;;;;;;;;5.31;nan;101125.38;5004040;28;19972;-32
2022/12/11 08:27:35;;;;;;;;;;;;;;;5.32;nan;101128.88;5004753;28;19941;-32
2022/12/11 08:30:01;;;;;;;;;;;;;;;5.33;nan;101133.16;5005472;28;19928;-33
2022/12/11 08:32:26;;;;;;;;;;;;;;;5.35;nan;101139.06;5004373;28;19917;-33
2022/12/11 08:34:51;;;;;;;;;;;;;;;5.36;nan;101136.22;5005540;28;19924;-32
2022/12/11 08:37:17;;;;;;;;;;;;;;;5.39;nan;101130.53;5004799;28;19917;-33
2022/12/11 08:39:43;;;;;;;;;;;;;;;5.41;nan;101135.63;5007012;28;19918;-33
2022/12/11 08:42:09;;;;;;;;;;;;;;;5.41;nan;101130.31;5005106;28;19917;-33
2022/12/11 08:44:34;;;;;;;;;;;;;;;5.44;nan;101129.91;5003203;28;19928;-32
2022/12/11 08:46:59;;;;;;;;;;;;;;;5.44;nan;101125.41;5003317;28;20077;-32
2022/12/11 08:49:25;;;;;;;;;;;;;;;5.44;nan;101132.56;5004401;28;20523;-33
2022/12/11 08:51:50;;;;;;;;;;;;;;;5.45;nan;101127.03;5004103;28;19918;-33
2022/12/11 08:54:15;;;;;;;;;;;;;;;5.46;nan;101127.84;5003347;28;19926;-33
2022/12/11 08:56:41;;;;;;;;;;;;;;;5.47;nan;101121.50;5006052;28;20016;-33
2022/12/11 08:59:06;;;;;;;;;;;;;;;5.46;nan;101125.19;5005966;28;19949;-33
2022/12/11 09:01:32;;;;;;;;;;;;;;;5.48;nan;101123.13;5005960;28;20381;-33
2022/12/11 09:03:57;;;;;;;;;;;;;;;5.51;nan;101125.38;5002822;28;19925;-33
2022/12/11 09:06:24;;;;;;;;;;;;;;;5.55;nan;101131.09;5003054;28;20063;-33
2022/12/11 09:08:50;;;;;;;;;;;;;;;5.55;nan;101126.59;5004010;28;19918;-33
2022/12/11 09:11:17;;;;;;;;;;;;;;;5.58;nan;101130.72;5004704;28;19933;-33
2022/12/11 09:13:43;;;;;;;;;;;;;;;5.61;nan;101143.59;5005783;28;19928;-33
2022/12/11 09:16:10;;;;;;;;;;;;;;;5.64;nan;101135.19;5005106;28;19921;-32
2022/12/11 09:18:36;;;;;;;;;;;;;;;5.68;nan;101136.41;5005745;28;20146;-32
2022/12/11 09:21:03;;;;;;;;;;;;;;;5.71;nan;101130.69;5005788;28;19917;-33
2022/12/11 09:23:28;;;;;;;;;;;;;;;5.73;nan;101133.94;5005043;28;20419;-32
2022/12/11 09:25:54;;;;;;;;;;;;;;;5.73;nan;101129.44;5004873;28;19996;-33
2022/12/11 09:28:19;;;;;;;;;;;;;;;5.74;nan;101138.25;5005198;28;20271;-32
2022/12/11 09:30:44;;;;;;;;;;;;;;;5.71;nan;101133.34;5005973;28;19980;-33
2022/12/11 09:33:10;;;;;;;;;;;;;;;5.71;nan;101120.88;5004550;28;19924;-32
2022/12/11 09:35:36;;;;;;;;;;;;;;;5.73;nan;101120.66;5005069;28;19972;-33
2022/12/11 09:38:01;;;;;;;;;;;;;;;5.76;nan;101123.75;5004435;28;20020;-32
2022/12/11 09:40:27;;;;;;;;;;;;;;;5.81;nan;101125.78;5005445;28;20059;-32
2022/12/11 09:42:57;;;;;;;;;;;;;;;5.85;nan;101123.50;5005120;28;19921;-32
2022/12/11 09:45:22;;;;;;;;;;;;;;;5.84;nan;101112.06;5005756;28;20385;-33
2022/12/11 09:47:51;;;;;;;;;;;;;;;5.83;nan;101105.09;5005453;28;19917;-32
2022/12/11 09:50:20;;;;;;;;;;;;;;;5.83;nan;101106.94;5005849;28;19925;-33
2022/12/11 09:53:05;;;;;;;;;;;;;;;5.84;nan;101100.59;5002561;28;19917;-33
2022/12/11 09:55:37;;;;;;;;;;;;;;;5.89;nan;101098.13;5004806;28;19939;-32
2022/12/11 09:58:02;;;;;;;;;;;;;;;5.90;nan;101091.81;5008244;28;19921;-33
2022/12/11 10:00:40;;;;;;;;;;;;;;;5.90;nan;101099.78;5008429;28;20301;-33
2022/12/11 10:03:14;;;;;;;;;;;;;;;5.92;nan;101100.41;5008699;28;19921;-32
2022/12/11 10:05:54;;;;;;;;;;;;;;;5.94;nan;101088.53;5009166;28;19975;-33
2022/12/11 10:08:29;;;;;;;;;;;;;;;5.96;nan;101091.81;5009201;28;20222;-33
2022/12/11 10:11:04;;;;;;;;;;;;;;;5.99;nan;101096.72;5009027;28;19917;-33
2022/12/11 10:14:02;;;;;;;;;;;;;;;6.02;nan;101085.66;5007759;28;19917;-32
2022/12/11 10:16:42;;;;;;;;;;;;;;;6.08;nan;101089.31;4975539;28;19940;-33
2022/12/11 10:19:27;;;;;;;;;;;;;;;6.14;nan;101088.47;5008885;28;19924;-32
2022/12/11 10:21:54;;;;;;;;;;;;;;;6.17;nan;101080.06;5003653;28;20020;-32
2022/12/11 10:24:19;;;;;;;;;;;;;;;6.18;nan;101076.38;5003309;28;19924;-33
2022/12/11 10:26:45;;;;;;;;;;;;;;;6.19;nan;101064.72;5006591;28;19929;-33
2022/12/11 10:29:12;;;;;;;;;;;;;;;6.22;nan;101053.63;5006590;28;19917;-33
2022/12/11 10:31:50;;;;;;;;;;;;;;;6.23;nan;101047.28;5006555;28;20337;-33
2022/12/11 10:34:25;;;;;;;;;;;;;;;6.25;nan;101045.22;5003672;28;19925;-33
2022/12/11 10:36:50;;;;;;;;;;;;;;;6.27;nan;101047.69;5003583;28;19921;-33
2022/12/11 10:39:17;;;;;;;;;;;;;;;6.26;nan;101046.84;5005619;28;19922;-33
2022/12/11 10:41:44;;;;;;;;;;;;;;;6.28;nan;101041.31;5004176;28;19926;-33
2022/12/11 10:44:25;;;;;;;;;;;;;;;6.28;nan;101039.50;5003977;28;20057;-33
2022/12/11 10:47:10;;;;;;;;;;;;;;;6.28;nan;101036.00;5006849;28;19989;-33
2022/12/11 10:49:36;;;;;;;;;;;;;;;6.26;nan;101028.22;5007288;28;19928;-31
2022/12/11 10:52:09;;;;;;;;;;;;;;;6.27;nan;101026.38;5004098;28;19967;-32
2022/12/11 10:54:37;;;;;;;;;;;;;;;6.27;nan;101024.53;5001497;28;19925;-32
2022/12/11 10:57:03;;;;;;;;;;;;;;;6.26;nan;101014.13;5004814;28;19925;-32
2022/12/11 10:59:28;;;;;;;;;;;;;;;6.29;nan;101016.38;5005883;28;20392;-32
2022/12/11 11:01:53;;;;;;;;;;;;;;;6.30;nan;101018.00;5005773;28;19917;-32
2022/12/11 11:04:22;;;;;;;;;;;;;;;6.32;nan;101010.63;5005783;28;19924;-32
2022/12/11 11:06:48;;;;;;;;;;;;;;;6.35;nan;101005.69;5006510;28;19925;-32
2022/12/11 11:09:32;;;;;;;;;;;;;;;6.38;nan;101003.63;5007091;28;20425;-32
2022/12/11 11:11:58;;;;;;;;;;;;;;;6.37;nan;101005.47;5004022;28;20376;-31
2022/12/11 11:14:23;;;;;;;;;;;;;;;6.42;nan;101000.31;5008135;28;19918;-32
2022/12/11 11:16:50;;;;;;;;;;;;;;;6.47;nan;101003.16;5007870;28;20397;-32
2022/12/11 11:19:32;;;;;;;;;;;;;;;6.52;nan;100987.34;5007828;28;19922;-32
2022/12/11 11:22:11;;;;;;;;;;;;;;;6.55;nan;100984.25;5007596;28;20445;-32
2022/12/11 11:24:44;;;;;;;;;;;;;;;6.57;nan;100987.50;5003880;28;19937;-32
2022/12/11 11:27:20;;;;;;;;;;;;;;;6.60;nan;100976.44;5005084;28;19929;-32
2022/12/11 11:29:45;;;;;;;;;;;;;;;6.63;nan;100972.50;5005065;28;20008;-32
2022/12/11 11:32:19;;;;;;;;;;;;;;;6.64;nan;100977.66;5005720;28;20008;-32
2022/12/11 11:34:44;;;;;;;;;;;;;;;6.62;nan;100981.53;5004362;28;19988;-32
2022/12/11 11:37:30;;;;;;;;;;;;;;;6.65;nan;100989.13;5004958;28;19968;-32
2022/12/11 11:39:58;;;;;;;;;;;;;;;6.68;nan;100971.88;5004299;28;20064;-32
2022/12/11 11:42:46;;;;;;;;;;;;;;;6.73;nan;100964.88;5004689;28;19918;-32
2022/12/11 11:45:15;;;;;;;;;;;;;;;6.79;nan;100969.31;5004931;28;19983;-32
2022/12/11 11:47:47;;;;;;;;;;;;;;;6.81;nan;100969.91;5002803;28;20020;-32
2022/12/11 11:50:17;;;;;;;;;;;;;;;6.84;nan;100977.50;5005023;28;19918;-31
2022/12/11 11:52:47;;;;;;;;;;;;;;;6.86;nan;100969.28;5006025;28;19917;-32
2022/12/11 11:55:15;;;;;;;;;;;;;;;6.88;nan;100972.53;5006370;28;19917;-32
2022/12/11 11:57:52;;;;;;;;;;;;;;;6.94;nan;100966.34;5005512;28;19931;-32
2022/12/11 12:00:22;;;;;;;;;;;;;;;6.95;nan;100965.28;5006306;28;19924;-32
2022/12/11 12:02:50;;;;;;;;;;;;;;;6.96;nan;100967.75;5005337;28;19917;-32
2022/12/11 12:05:21;;;;;;;;;;;;;;;7.02;nan;100957.25;5002805;28;19925;-32
2022/12/11 12:08:07;;;;;;;;;;;;;;;7.08;nan;100961.69;5000637;28;19925;-32
2022/12/11 12:10:41;;;;;;;;;;;;;;;7.13;nan;100964.50;5001429;28;19921;-32
2022/12/11 12:13:25;;;;;;;;;;;;;;;7.16;nan;100958.75;4999538;28;19925;-31
2022/12/11 12:15:55;;;;;;;;;;;;;;;7.15;nan;100952.59;5002335;28;20432;-32
2022/12/11 12:18:43;;;;;;;;;;;;;;;7.13;nan;100951.19;5001990;28;19922;-32
2022/12/11 12:21:17;;;;;;;;;;;;;;;7.07;nan;100941.44;5001162;28;19921;-32
2022/12/11 12:24:00;;;;;;;;;;;;;;;7.05;nan;100940.84;5003143;28;20302;-32
2022/12/11 12:26:25;;;;;;;;;;;;;;;7.03;nan;100938.38;4984771;28;19948;-32
2022/12/11 12:29:09;;;;;;;;;;;;;;;7.07;nan;100942.25;5002638;28;19922;-32
2022/12/11 12:32:08;;;;;;;;;;;;;;;7.08;nan;100941.19;5002691;28;19964;-32
2022/12/11 12:34:48;;;;;;;;;;;;;;;7.11;nan;100947.94;4967654;28;20184;-32
2022/12/11 12:37:20;;;;;;;;;;;;;;;7.04;nan;100944.53;5001052;28;22018;-32
2022/12/11 12:39:45;;;;;;;;;;;;;;;7.04;nan;100945.34;5004391;28;20729;-32
2022/12/11 12:42:31;;;;;;;;;;;;;;;7.07;nan;100944.91;5001876;28;20086;-32
2022/12/11 12:44:58;;;;;;;;;;;;;;;7.10;nan;100940.97;5000928;28;19930;-32
2022/12/11 12:47:25;;;;;;;;;;;;;;;7.14;nan;100944.81;5000878;28;20367;-32
2022/12/11 12:49:52;;;;;;;;;;;;;;;7.14;nan;100940.31;5002134;28;20413;-32
2022/12/11 12:52:35;;;;;;;;;;;;;;;7.11;nan;100951.41;5002595;28;19921;-32
2022/12/11 12:55:17;;;;;;;;;;;;;;;7.10;nan;100935.66;5000032;28;20389;-32
2022/12/11 12:57:48;;;;;;;;;;;;;;;7.09;nan;100934.84;5002140;28;19921;-32
2022/12/11 13:00:24;;;;;;;;;;;;;;;7.10;nan;100935.66;5001948;28;20080;-32
2022/12/11 13:02:50;;;;;;;;;;;;;;;7.10;nan;100931.13;5003197;28;20007;-32
2022/12/11 13:05:23;;;;;;;;;;;;;;;7.08;nan;100929.72;5001678;28;20216;-31
2022/12/11 13:07:51;;;;;;;;;;;;;;;7.09;nan;100929.50;4999383;28;19921;-32
2022/12/11 13:10:36;;;;;;;;;;;;;;;7.08;nan;100929.72;5000960;28;19948;-32
2022/12/11 13:13:02;;;;;;;;;;;;;;;7.10;nan;100930.31;5001044;28;19921;-32
2022/12/11 13:15:35;;;;;;;;;;;;;;;7.07;nan;100920.09;5003763;28;20396;-32
2022/12/11 13:18:03;;;;;;;;;;;;;;;7.08;nan;100919.06;5001205;28;19917;-32
2022/12/11 13:20:30;;;;;;;;;;;;;;;7.08;nan;100921.75;5004088;28;19921;-32
2022/12/11 13:22:59;;;;;;;;;;;;;;;7.09;nan;100926.84;5003226;28;19932;-32
2022/12/11 13:25:26;;;;;;;;;;;;;;;7.11;nan;100929.28;5002834;28;20033;-32